sensor_id;sensor_type;location;lat;lon;timestamp;P1;durP1;ratioP1;P2;durP2;ratioP2
73642;SDS011;61938;48.652;9.292;2024-01-10T00:00:17;48.35;;;21.48;;
73642;SDS011;61938;48.652;9.292;2024-01-10T00:02:42;57.40;;;23.70;;
73642;SDS011;61938;48.652;9.292;2024-01-10T00:05:08;65.88;;;25.20;;
73642;SDS011;61938;48.652;9.292;2024-01-10T00:07:33;71.75;;;26.10;;
73642;SDS011;61938;48.652;9.292;2024-01-10T00:10:01;62.92;;;23.20;;
73642;SDS011;61938;48.652;9.292;2024-01-10T00:12:27;54.58;;;22.63;;
73642;SDS011;61938;48.652;9.292;2024-01-10T00:14:58;61.85;;;22.67;;
73642;SDS011;61938;48.652;9.292;2024-01-10T00:17:23;56.08;;;22.85;;
73642;SDS011;61938;48.652;9.292;2024-01-10T00:19:49;57.45;;;22.50;;
73642;SDS011;61938;48.652;9.292;2024-01-10T00:22:14;48.97;;;19.75;;
73642;SDS011;61938;48.652;9.292;2024-01-10T00:24:40;65.63;;;20.25;;
73642;SDS011;61938;48.652;9.292;2024-01-10T00:27:05;50.15;;;19.73;;
73642;SDS011;61938;48.652;9.292;2024-01-10T00:29:31;56.50;;;19.30;;
73642;SDS011;61938;48.652;9.292;2024-01-10T00:31:56;53.60;;;19.85;;
73642;SDS011;61938;48.652;9.292;2024-01-10T00:34:24;44.80;;;18.45;;
73642;SDS011;61938;48.652;9.292;2024-01-10T00:36:50;51.22;;;18.98;;
73642;SDS011;61938;48.652;9.292;2024-01-10T00:39:15;53.92;;;20.67;;
73642;SDS011;61938;48.652;9.292;2024-01-10T00:41:41;58.33;;;22.58;;
73642;SDS011;61938;48.652;9.292;2024-01-10T00:44:06;73.85;;;26.02;;
73642;SDS011;61938;48.652;9.292;2024-01-10T00:46:31;69.60;;;26.42;;
73642;SDS011;61938;48.652;9.292;2024-01-10T00:48:57;65.53;;;25.60;;
73642;SDS011;61938;48.652;9.292;2024-01-10T00:51:22;66.90;;;24.63;;
73642;SDS011;61938;48.652;9.292;2024-01-10T00:53:48;58.85;;;22.98;;
73642;SDS011;61938;48.652;9.292;2024-01-10T00:56:13;55.58;;;22.33;;
73642;SDS011;61938;48.652;9.292;2024-01-10T00:58:39;58.13;;;23.08;;
73642;SDS011;61938;48.652;9.292;2024-01-10T01:01:05;62.33;;;22.63;;
73642;SDS011;61938;48.652;9.292;2024-01-10T01:03:30;53.35;;;20.70;;
73642;SDS011;61938;48.652;9.292;2024-01-10T01:05:56;59.33;;;22.83;;
73642;SDS011;61938;48.652;9.292;2024-01-10T01:08:21;50.25;;;20.15;;
73642;SDS011;61938;48.652;9.292;2024-01-10T01:10:47;68.55;;;21.90;;
73642;SDS011;61938;48.652;9.292;2024-01-10T01:13:12;53.95;;;21.42;;
73642;SDS011;61938;48.652;9.292;2024-01-10T01:15:38;59.47;;;22.65;;
73642;SDS011;61938;48.652;9.292;2024-01-10T01:18:03;57.40;;;21.98;;
73642;SDS011;61938;48.652;9.292;2024-01-10T01:20:29;56.38;;;22.45;;
73642;SDS011;61938;48.652;9.292;2024-01-10T01:22:54;56.95;;;21.25;;
73642;SDS011;61938;48.652;9.292;2024-01-10T01:25:20;61.72;;;21.95;;
73642;SDS011;61938;48.652;9.292;2024-01-10T01:27:45;52.80;;;21.40;;
73642;SDS011;61938;48.652;9.292;2024-01-10T01:30:11;49.80;;;20.50;;
73642;SDS011;61938;48.652;9.292;2024-01-10T01:32:37;53.25;;;21.80;;
73642;SDS011;61938;48.652;9.292;2024-01-10T01:35:02;50.70;;;21.17;;
73642;SDS011;61938;48.652;9.292;2024-01-10T01:37:28;54.85;;;21.13;;
73642;SDS011;61938;48.652;9.292;2024-01-10T01:39:54;53.20;;;19.67;;
73642;SDS011;61938;48.652;9.292;2024-01-10T01:42:19;51.20;;;20.85;;
73642;SDS011;61938;48.652;9.292;2024-01-10T01:44:45;51.65;;;18.50;;
73642;SDS011;61938;48.652;9.292;2024-01-10T01:47:10;46.33;;;19.00;;
73642;SDS011;61938;48.652;9.292;2024-01-10T01:49:36;51.42;;;18.00;;
73642;SDS011;61938;48.652;9.292;2024-01-10T01:52:02;46.17;;;18.48;;
73642;SDS011;61938;48.652;9.292;2024-01-10T01:54:28;53.13;;;18.08;;
73642;SDS011;61938;48.652;9.292;2024-01-10T01:56:56;48.50;;;18.77;;
73642;SDS011;61938;48.652;9.292;2024-01-10T01:59:22;42.55;;;17.33;;
73642;SDS011;61938;48.652;9.292;2024-01-10T02:01:48;51.90;;;19.83;;
73642;SDS011;61938;48.652;9.292;2024-01-10T02:04:14;57.42;;;21.95;;
73642;SDS011;61938;48.652;9.292;2024-01-10T02:06:39;56.08;;;22.30;;
73642;SDS011;61938;48.652;9.292;2024-01-10T02:09:05;54.15;;;21.50;;
73642;SDS011;61938;48.652;9.292;2024-01-10T02:11:30;54.92;;;20.95;;
73642;SDS011;61938;48.652;9.292;2024-01-10T02:13:57;50.92;;;21.10;;
73642;SDS011;61938;48.652;9.292;2024-01-10T02:16:22;56.78;;;21.77;;
73642;SDS011;61938;48.652;9.292;2024-01-10T02:18:49;52.92;;;21.15;;
73642;SDS011;61938;48.652;9.292;2024-01-10T02:21:15;46.83;;;17.63;;
73642;SDS011;61938;48.652;9.292;2024-01-10T02:23:41;45.80;;;18.48;;
73642;SDS011;61938;48.652;9.292;2024-01-10T02:26:07;48.08;;;17.60;;
73642;SDS011;61938;48.652;9.292;2024-01-10T02:28:32;44.60;;;17.13;;
73642;SDS011;61938;48.652;9.292;2024-01-10T02:30:58;48.65;;;18.05;;
73642;SDS011;61938;48.652;9.292;2024-01-10T02:33:25;49.13;;;18.23;;
73642;SDS011;61938;48.652;9.292;2024-01-10T02:35:50;46.17;;;17.00;;
73642;SDS011;61938;48.652;9.292;2024-01-10T02:38:16;43.53;;;17.98;;
73642;SDS011;61938;48.652;9.292;2024-01-10T02:40:42;48.22;;;17.60;;
73642;SDS011;61938;48.652;9.292;2024-01-10T02:43:08;41.97;;;16.90;;
73642;SDS011;61938;48.652;9.292;2024-01-10T02:45:34;40.33;;;18.05;;
73642;SDS011;61938;48.652;9.292;2024-01-10T02:48:00;45.65;;;17.27;;
73642;SDS011;61938;48.652;9.292;2024-01-10T02:50:26;47.33;;;17.15;;
73642;SDS011;61938;48.652;9.292;2024-01-10T02:52:51;47.42;;;16.33;;
73642;SDS011;61938;48.652;9.292;2024-01-10T02:55:17;45.38;;;17.17;;
73642;SDS011;61938;48.652;9.292;2024-01-10T02:57:42;47.40;;;17.77;;
73642;SDS011;61938;48.652;9.292;2024-01-10T03:00:08;51.47;;;16.02;;
73642;SDS011;61938;48.652;9.292;2024-01-10T03:02:34;42.22;;;16.60;;
73642;SDS011;61938;48.652;9.292;2024-01-10T03:04:59;44.95;;;17.38;;
73642;SDS011;61938;48.652;9.292;2024-01-10T03:07:25;42.72;;;16.95;;
73642;SDS011;61938;48.652;9.292;2024-01-10T03:09:50;42.08;;;15.13;;
73642;SDS011;61938;48.652;9.292;2024-01-10T03:12:16;48.95;;;18.33;;
73642;SDS011;61938;48.652;9.292;2024-01-10T03:14:41;48.28;;;17.60;;
73642;SDS011;61938;48.652;9.292;2024-01-10T03:17:07;50.65;;;18.02;;
73642;SDS011;61938;48.652;9.292;2024-01-10T03:19:33;45.13;;;17.35;;
73642;SDS011;61938;48.652;9.292;2024-01-10T03:21:58;39.38;;;16.98;;
73642;SDS011;61938;48.652;9.292;2024-01-10T03:24:24;51.05;;;20.35;;
73642;SDS011;61938;48.652;9.292;2024-01-10T03:26:52;49.17;;;18.65;;
73642;SDS011;61938;48.652;9.292;2024-01-10T03:29:17;46.25;;;17.88;;
73642;SDS011;61938;48.652;9.292;2024-01-10T03:31:43;46.78;;;18.08;;
73642;SDS011;61938;48.652;9.292;2024-01-10T03:34:08;50.15;;;18.48;;
73642;SDS011;61938;48.652;9.292;2024-01-10T03:36:34;52.30;;;19.98;;
73642;SDS011;61938;48.652;9.292;2024-01-10T03:38:59;49.40;;;19.80;;
73642;SDS011;61938;48.652;9.292;2024-01-10T03:41:25;47.03;;;18.77;;
73642;SDS011;61938;48.652;9.292;2024-01-10T03:43:51;51.03;;;19.38;;
73642;SDS011;61938;48.652;9.292;2024-01-10T03:46:16;51.75;;;18.02;;
73642;SDS011;61938;48.652;9.292;2024-01-10T03:48:42;52.55;;;19.05;;
73642;SDS011;61938;48.652;9.292;2024-01-10T03:51:16;50.50;;;18.95;;
73642;SDS011;61938;48.652;9.292;2024-01-10T03:53:43;54.88;;;20.17;;
73642;SDS011;61938;48.652;9.292;2024-01-10T03:56:12;57.17;;;20.75;;
73642;SDS011;61938;48.652;9.292;2024-01-10T03:58:37;46.78;;;18.15;;
73642;SDS011;61938;48.652;9.292;2024-01-10T04:01:07;54.40;;;20.02;;
73642;SDS011;61938;48.652;9.292;2024-01-10T04:03:33;52.35;;;20.75;;
73642;SDS011;61938;48.652;9.292;2024-01-10T04:05:59;52.38;;;19.20;;
73642;SDS011;61938;48.652;9.292;2024-01-10T04:08:25;52.65;;;19.92;;
73642;SDS011;61938;48.652;9.292;2024-01-10T04:10:51;46.30;;;19.10;;
73642;SDS011;61938;48.652;9.292;2024-01-10T04:13:16;54.63;;;20.67;;
73642;SDS011;61938;48.652;9.292;2024-01-10T04:15:42;49.42;;;18.98;;
73642;SDS011;61938;48.652;9.292;2024-01-10T04:18:07;52.13;;;20.00;;
73642;SDS011;61938;48.652;9.292;2024-01-10T04:20:33;52.83;;;19.88;;
73642;SDS011;61938;48.652;9.292;2024-01-10T04:22:59;55.30;;;21.40;;
73642;SDS011;61938;48.652;9.292;2024-01-10T04:25:24;51.15;;;20.52;;
73642;SDS011;61938;48.652;9.292;2024-01-10T04:27:50;55.40;;;19.83;;
73642;SDS011;61938;48.652;9.292;2024-01-10T04:30:15;50.90;;;19.27;;
73642;SDS011;61938;48.652;9.292;2024-01-10T04:32:41;51.90;;;19.15;;
73642;SDS011;61938;48.652;9.292;2024-01-10T04:35:07;53.78;;;20.02;;
73642;SDS011;61938;48.652;9.292;2024-01-10T04:37:32;55.20;;;19.27;;
73642;SDS011;61938;48.652;9.292;2024-01-10T04:39:58;51.13;;;19.65;;
73642;SDS011;61938;48.652;9.292;2024-01-10T04:42:23;60.50;;;20.90;;
73642;SDS011;61938;48.652;9.292;2024-01-10T04:44:50;50.20;;;19.63;;
73642;SDS011;61938;48.652;9.292;2024-01-10T04:47:15;55.92;;;20.00;;
73642;SDS011;61938;48.652;9.292;2024-01-10T04:49:41;53.50;;;21.17;;
73642;SDS011;61938;48.652;9.292;2024-01-10T04:52:06;49.00;;;18.45;;
73642;SDS011;61938;48.652;9.292;2024-01-10T04:54:32;56.88;;;21.83;;
73642;SDS011;61938;48.652;9.292;2024-01-10T04:56:57;47.90;;;19.70;;
73642;SDS011;61938;48.652;9.292;2024-01-10T04:59:23;50.72;;;20.63;;
73642;SDS011;61938;48.652;9.292;2024-01-10T05:01:49;52.30;;;19.55;;
73642;SDS011;61938;48.652;9.292;2024-01-10T05:04:15;55.55;;;21.95;;
73642;SDS011;61938;48.652;9.292;2024-01-10T05:06:40;49.00;;;20.05;;
73642;SDS011;61938;48.652;9.292;2024-01-10T05:09:06;56.70;;;20.23;;
73642;SDS011;61938;48.652;9.292;2024-01-10T05:11:31;52.08;;;19.98;;
73642;SDS011;61938;48.652;9.292;2024-01-10T05:13:57;55.35;;;20.77;;
73642;SDS011;61938;48.652;9.292;2024-01-10T05:16:22;60.05;;;21.00;;
73642;SDS011;61938;48.652;9.292;2024-01-10T05:18:48;54.13;;;21.70;;
73642;SDS011;61938;48.652;9.292;2024-01-10T05:21:13;46.78;;;20.67;;
73642;SDS011;61938;48.652;9.292;2024-01-10T05:23:39;53.30;;;20.10;;
73642;SDS011;61938;48.652;9.292;2024-01-10T05:26:05;48.45;;;18.55;;
73642;SDS011;61938;48.652;9.292;2024-01-10T05:28:31;49.03;;;20.55;;
73642;SDS011;61938;48.652;9.292;2024-01-10T05:30:57;55.55;;;19.13;;
73642;SDS011;61938;48.652;9.292;2024-01-10T05:33:23;51.88;;;20.33;;
73642;SDS011;61938;48.652;9.292;2024-01-10T05:35:48;54.13;;;20.67;;
73642;SDS011;61938;48.652;9.292;2024-01-10T05:38:14;54.05;;;19.45;;
73642;SDS011;61938;48.652;9.292;2024-01-10T05:40:39;49.30;;;19.50;;
73642;SDS011;61938;48.652;9.292;2024-01-10T05:43:05;46.28;;;20.08;;
73642;SDS011;61938;48.652;9.292;2024-01-10T05:45:32;48.72;;;18.33;;
73642;SDS011;61938;48.652;9.292;2024-01-10T05:47:58;48.65;;;20.00;;
73642;SDS011;61938;48.652;9.292;2024-01-10T05:50:23;56.53;;;20.95;;
73642;SDS011;61938;48.652;9.292;2024-01-10T05:52:49;51.28;;;19.50;;
73642;SDS011;61938;48.652;9.292;2024-01-10T05:55:14;52.53;;;20.13;;
73642;SDS011;61938;48.652;9.292;2024-01-10T05:57:40;48.03;;;19.38;;
73642;SDS011;61938;48.652;9.292;2024-01-10T06:00:05;55.28;;;20.27;;
73642;SDS011;61938;48.652;9.292;2024-01-10T06:02:36;48.88;;;20.20;;
73642;SDS011;61938;48.652;9.292;2024-01-10T06:05:03;56.28;;;21.58;;
73642;SDS011;61938;48.652;9.292;2024-01-10T06:07:33;51.78;;;19.50;;
73642;SDS011;61938;48.652;9.292;2024-01-10T06:09:59;48.85;;;19.35;;
73642;SDS011;61938;48.652;9.292;2024-01-10T06:12:26;57.95;;;19.85;;
73642;SDS011;61938;48.652;9.292;2024-01-10T06:14:51;52.22;;;19.20;;
73642;SDS011;61938;48.652;9.292;2024-01-10T06:17:17;55.95;;;20.42;;
73642;SDS011;61938;48.652;9.292;2024-01-10T06:19:43;52.10;;;20.08;;
73642;SDS011;61938;48.652;9.292;2024-01-10T06:22:09;56.28;;;19.80;;
73642;SDS011;61938;48.652;9.292;2024-01-10T06:24:36;52.97;;;20.73;;
73642;SDS011;61938;48.652;9.292;2024-01-10T06:27:03;55.15;;;19.90;;
73642;SDS011;61938;48.652;9.292;2024-01-10T06:29:29;49.40;;;19.52;;
73642;SDS011;61938;48.652;9.292;2024-01-10T06:31:55;46.90;;;19.42;;
73642;SDS011;61938;48.652;9.292;2024-01-10T06:34:22;55.60;;;20.48;;
73642;SDS011;61938;48.652;9.292;2024-01-10T06:36:47;47.38;;;20.65;;
73642;SDS011;61938;48.652;9.292;2024-01-10T06:39:13;55.28;;;20.70;;
73642;SDS011;61938;48.652;9.292;2024-01-10T06:41:39;51.47;;;20.02;;
73642;SDS011;61938;48.652;9.292;2024-01-10T06:44:04;51.53;;;20.45;;
73642;SDS011;61938;48.652;9.292;2024-01-10T06:46:31;51.03;;;21.50;;
73642;SDS011;61938;48.652;9.292;2024-01-10T06:48:57;54.17;;;20.88;;
73642;SDS011;61938;48.652;9.292;2024-01-10T06:51:24;55.95;;;21.55;;
73642;SDS011;61938;48.652;9.292;2024-01-10T06:53:49;54.70;;;20.10;;
73642;SDS011;61938;48.652;9.292;2024-01-10T06:56:15;54.25;;;21.45;;
73642;SDS011;61938;48.652;9.292;2024-01-10T06:58:40;58.08;;;21.75;;
73642;SDS011;61938;48.652;9.292;2024-01-10T07:01:11;50.70;;;20.48;;
73642;SDS011;61938;48.652;9.292;2024-01-10T07:03:38;50.38;;;21.80;;
73642;SDS011;61938;48.652;9.292;2024-01-10T07:06:04;46.42;;;20.05;;
73642;SDS011;61938;48.652;9.292;2024-01-10T07:08:30;63.85;;;23.30;;
73642;SDS011;61938;48.652;9.292;2024-01-10T07:10:55;58.25;;;22.40;;
73642;SDS011;61938;48.652;9.292;2024-01-10T07:13:21;63.20;;;22.00;;
73642;SDS011;61938;48.652;9.292;2024-01-10T07:15:48;50.25;;;20.33;;
73642;SDS011;61938;48.652;9.292;2024-01-10T07:18:15;60.78;;;23.98;;
73642;SDS011;61938;48.652;9.292;2024-01-10T07:20:41;59.33;;;22.73;;
73642;SDS011;61938;48.652;9.292;2024-01-10T07:23:07;57.95;;;23.98;;
73642;SDS011;61938;48.652;9.292;2024-01-10T07:25:32;59.45;;;24.00;;
73642;SDS011;61938;48.652;9.292;2024-01-10T07:27:58;71.22;;;25.63;;
73642;SDS011;61938;48.652;9.292;2024-01-10T07:30:24;59.72;;;23.02;;
73642;SDS011;61938;48.652;9.292;2024-01-10T07:32:50;58.03;;;23.15;;
73642;SDS011;61938;48.652;9.292;2024-01-10T07:35:15;69.47;;;23.05;;
73642;SDS011;61938;48.652;9.292;2024-01-10T07:37:41;63.20;;;23.60;;
73642;SDS011;61938;48.652;9.292;2024-01-10T07:40:10;59.63;;;23.25;;
73642;SDS011;61938;48.652;9.292;2024-01-10T07:42:35;62.03;;;23.88;;
73642;SDS011;61938;48.652;9.292;2024-01-10T07:45:02;58.60;;;22.85;;
73642;SDS011;61938;48.652;9.292;2024-01-10T07:47:29;53.33;;;23.23;;
73642;SDS011;61938;48.652;9.292;2024-01-10T07:49:56;57.10;;;22.67;;
73642;SDS011;61938;48.652;9.292;2024-01-10T07:52:22;61.67;;;24.52;;
73642;SDS011;61938;48.652;9.292;2024-01-10T07:54:47;59.30;;;23.60;;
73642;SDS011;61938;48.652;9.292;2024-01-10T07:57:13;72.13;;;25.20;;
73642;SDS011;61938;48.652;9.292;2024-01-10T07:59:38;62.15;;;23.60;;
73642;SDS011;61938;48.652;9.292;2024-01-10T08:02:04;62.92;;;23.75;;
73642;SDS011;61938;48.652;9.292;2024-01-10T08:04:30;63.53;;;24.02;;
73642;SDS011;61938;48.652;9.292;2024-01-10T08:06:55;77.38;;;26.17;;
73642;SDS011;61938;48.652;9.292;2024-01-10T08:09:22;71.75;;;26.25;;
73642;SDS011;61938;48.652;9.292;2024-01-10T08:11:49;63.67;;;24.30;;
73642;SDS011;61938;48.652;9.292;2024-01-10T08:14:14;67.25;;;24.52;;
73642;SDS011;61938;48.652;9.292;2024-01-10T08:16:41;55.55;;;22.77;;
73642;SDS011;61938;48.652;9.292;2024-01-10T08:19:07;65.65;;;25.67;;
73642;SDS011;61938;48.652;9.292;2024-01-10T08:21:33;65.88;;;23.67;;
73642;SDS011;61938;48.652;9.292;2024-01-10T08:23:59;55.75;;;23.75;;
73642;SDS011;61938;48.652;9.292;2024-01-10T08:26:27;62.65;;;23.67;;
73642;SDS011;61938;48.652;9.292;2024-01-10T08:28:53;61.63;;;24.10;;
73642;SDS011;61938;48.652;9.292;2024-01-10T08:31:18;51.85;;;21.50;;
73642;SDS011;61938;48.652;9.292;2024-01-10T08:33:44;58.20;;;21.67;;
73642;SDS011;61938;48.652;9.292;2024-01-10T08:36:10;54.25;;;21.98;;
73642;SDS011;61938;48.652;9.292;2024-01-10T08:38:35;54.22;;;21.33;;
73642;SDS011;61938;48.652;9.292;2024-01-10T08:41:02;54.15;;;23.15;;
73642;SDS011;61938;48.652;9.292;2024-01-10T08:43:28;56.42;;;23.42;;
73642;SDS011;61938;48.652;9.292;2024-01-10T08:45:56;50.33;;;20.92;;
73642;SDS011;61938;48.652;9.292;2024-01-10T08:48:25;58.78;;;23.33;;
73642;SDS011;61938;48.652;9.292;2024-01-10T08:50:51;53.03;;;21.15;;
73642;SDS011;61938;48.652;9.292;2024-01-10T08:53:16;64.50;;;22.60;;
73642;SDS011;61938;48.652;9.292;2024-01-10T08:55:42;59.03;;;22.52;;
73642;SDS011;61938;48.652;9.292;2024-01-10T08:58:08;55.00;;;22.15;;
73642;SDS011;61938;48.652;9.292;2024-01-10T09:00:33;54.33;;;23.02;;
73642;SDS011;61938;48.652;9.292;2024-01-10T09:02:59;60.83;;;23.35;;
73642;SDS011;61938;48.652;9.292;2024-01-10T09:05:25;56.38;;;22.25;;
73642;SDS011;61938;48.652;9.292;2024-01-10T09:07:51;54.70;;;23.08;;
73642;SDS011;61938;48.652;9.292;2024-01-10T09:10:18;54.60;;;22.30;;
73642;SDS011;61938;48.652;9.292;2024-01-10T09:12:46;54.40;;;23.20;;
73642;SDS011;61938;48.652;9.292;2024-01-10T09:15:12;59.00;;;23.45;;
73642;SDS011;61938;48.652;9.292;2024-01-10T09:17:39;56.28;;;23.40;;
73642;SDS011;61938;48.652;9.292;2024-01-10T09:20:08;54.78;;;23.27;;
73642;SDS011;61938;48.652;9.292;2024-01-10T09:22:35;54.50;;;24.05;;
73642;SDS011;61938;48.652;9.292;2024-01-10T09:25:00;62.30;;;24.63;;
73642;SDS011;61938;48.652;9.292;2024-01-10T09:27:30;52.97;;;22.65;;
73642;SDS011;61938;48.652;9.292;2024-01-10T09:29:55;58.15;;;24.17;;
73642;SDS011;61938;48.652;9.292;2024-01-10T09:32:21;53.58;;;22.13;;
73642;SDS011;61938;48.652;9.292;2024-01-10T09:34:47;67.65;;;23.27;;
73642;SDS011;61938;48.652;9.292;2024-01-10T09:37:12;55.28;;;23.10;;
73642;SDS011;61938;48.652;9.292;2024-01-10T09:39:38;67.30;;;23.35;;
73642;SDS011;61938;48.652;9.292;2024-01-10T09:42:03;55.90;;;23.17;;
73642;SDS011;61938;48.652;9.292;2024-01-10T09:44:29;62.67;;;24.63;;
73642;SDS011;61938;48.652;9.292;2024-01-10T09:46:55;61.97;;;24.65;;
73642;SDS011;61938;48.652;9.292;2024-01-10T09:49:21;56.15;;;22.73;;
73642;SDS011;61938;48.652;9.292;2024-01-10T09:51:47;66.10;;;25.63;;
73642;SDS011;61938;48.652;9.292;2024-01-10T09:54:14;69.38;;;25.73;;
73642;SDS011;61938;48.652;9.292;2024-01-10T09:56:41;59.88;;;25.15;;
73642;SDS011;61938;48.652;9.292;2024-01-10T09:59:07;63.78;;;25.98;;
73642;SDS011;61938;48.652;9.292;2024-01-10T10:01:36;65.90;;;26.58;;
73642;SDS011;61938;48.652;9.292;2024-01-10T10:04:04;63.90;;;26.48;;
73642;SDS011;61938;48.652;9.292;2024-01-10T10:06:31;68.70;;;27.15;;
73642;SDS011;61938;48.652;9.292;2024-01-10T10:08:56;65.65;;;26.83;;
73642;SDS011;61938;48.652;9.292;2024-01-10T10:11:21;66.25;;;25.38;;
73642;SDS011;61938;48.652;9.292;2024-01-10T10:13:47;70.43;;;27.05;;
73642;SDS011;61938;48.652;9.292;2024-01-10T10:16:13;70.32;;;27.85;;
73642;SDS011;61938;48.652;9.292;2024-01-10T10:18:39;63.42;;;25.38;;
73642;SDS011;61938;48.652;9.292;2024-01-10T10:21:12;62.97;;;25.25;;
73642;SDS011;61938;48.652;9.292;2024-01-10T10:23:39;66.18;;;26.55;;
73642;SDS011;61938;48.652;9.292;2024-01-10T10:26:15;65.28;;;24.88;;
73642;SDS011;61938;48.652;9.292;2024-01-10T10:28:46;63.33;;;25.00;;
73642;SDS011;61938;48.652;9.292;2024-01-10T10:31:13;64.55;;;26.58;;
73642;SDS011;61938;48.652;9.292;2024-01-10T10:33:39;66.78;;;25.85;;
73642;SDS011;61938;48.652;9.292;2024-01-10T10:36:05;67.15;;;27.63;;
73642;SDS011;61938;48.652;9.292;2024-01-10T10:38:31;65.68;;;27.58;;
73642;SDS011;61938;48.652;9.292;2024-01-10T10:40:58;62.17;;;26.23;;
73642;SDS011;61938;48.652;9.292;2024-01-10T10:43:24;68.00;;;26.88;;
73642;SDS011;61938;48.652;9.292;2024-01-10T10:45:51;66.55;;;25.98;;
73642;SDS011;61938;48.652;9.292;2024-01-10T10:48:17;62.15;;;25.75;;
73642;SDS011;61938;48.652;9.292;2024-01-10T10:53:37;74.90;;;27.77;;
73642;SDS011;61938;48.652;9.292;2024-01-10T10:56:05;69.32;;;28.25;;
73642;SDS011;61938;48.652;9.292;2024-01-10T10:58:33;74.47;;;28.70;;
73642;SDS011;61938;48.652;9.292;2024-01-10T11:01:03;70.80;;;28.30;;
73642;SDS011;61938;48.652;9.292;2024-01-10T11:03:33;77.50;;;29.52;;
73642;SDS011;61938;48.652;9.292;2024-01-10T11:06:01;69.25;;;28.88;;
73642;SDS011;61938;48.652;9.292;2024-01-10T11:08:28;70.57;;;27.95;;
73642;SDS011;61938;48.652;9.292;2024-01-10T11:10:58;72.43;;;27.38;;
73642;SDS011;61938;48.652;9.292;2024-01-10T11:21:56;75.50;;;28.17;;
73642;SDS011;61938;48.652;9.292;2024-01-10T11:24:45;71.57;;;28.20;;
73642;SDS011;61938;48.652;9.292;2024-01-10T11:27:11;66.68;;;27.42;;
73642;SDS011;61938;48.652;9.292;2024-01-10T11:29:41;60.20;;;26.08;;
73642;SDS011;61938;48.652;9.292;2024-01-10T11:32:17;69.60;;;26.85;;
73642;SDS011;61938;48.652;9.292;2024-01-10T11:35:04;59.17;;;24.52;;
73642;SDS011;61938;48.652;9.292;2024-01-10T11:37:45;60.90;;;25.92;;
73642;SDS011;61938;48.652;9.292;2024-01-10T11:40:12;62.53;;;24.88;;
73642;SDS011;61938;48.652;9.292;2024-01-10T11:42:41;61.70;;;24.88;;
73642;SDS011;61938;48.652;9.292;2024-01-10T11:45:07;63.13;;;25.52;;
73642;SDS011;61938;48.652;9.292;2024-01-10T11:47:33;55.40;;;24.17;;
73642;SDS011;61938;48.652;9.292;2024-01-10T11:49:59;59.30;;;25.08;;
73642;SDS011;61938;48.652;9.292;2024-01-10T11:52:33;62.85;;;25.05;;
73642;SDS011;61938;48.652;9.292;2024-01-10T11:54:59;62.60;;;26.15;;
73642;SDS011;61938;48.652;9.292;2024-01-10T11:57:26;67.70;;;27.98;;
73642;SDS011;61938;48.652;9.292;2024-01-10T11:59:53;73.88;;;29.38;;
73642;SDS011;61938;48.652;9.292;2024-01-10T12:02:20;59.63;;;26.08;;
73642;SDS011;61938;48.652;9.292;2024-01-10T12:04:51;72.45;;;28.85;;
73642;SDS011;61938;48.652;9.292;2024-01-10T12:07:17;74.00;;;29.35;;
73642;SDS011;61938;48.652;9.292;2024-01-10T12:09:44;69.93;;;29.73;;
73642;SDS011;61938;48.652;9.292;2024-01-10T12:12:10;69.10;;;29.10;;
73642;SDS011;61938;48.652;9.292;2024-01-10T12:14:37;77.32;;;29.88;;
73642;SDS011;61938;48.652;9.292;2024-01-10T12:17:02;67.80;;;29.25;;
73642;SDS011;61938;48.652;9.292;2024-01-10T12:19:29;67.47;;;27.42;;
73642;SDS011;61938;48.652;9.292;2024-01-10T12:21:55;69.60;;;28.52;;
73642;SDS011;61938;48.652;9.292;2024-01-10T12:24:22;76.93;;;29.20;;
73642;SDS011;61938;48.652;9.292;2024-01-10T12:26:48;65.38;;;28.33;;
73642;SDS011;61938;48.652;9.292;2024-01-10T12:29:20;62.90;;;26.48;;
73642;SDS011;61938;48.652;9.292;2024-01-10T12:31:46;67.95;;;28.63;;
73642;SDS011;61938;48.652;9.292;2024-01-10T12:34:13;72.78;;;29.17;;
73642;SDS011;61938;48.652;9.292;2024-01-10T12:36:39;64.00;;;27.77;;
73642;SDS011;61938;48.652;9.292;2024-01-10T12:39:04;75.47;;;28.50;;
73642;SDS011;61938;48.652;9.292;2024-01-10T12:41:32;64.05;;;27.80;;
73642;SDS011;61938;48.652;9.292;2024-01-10T12:43:58;64.35;;;26.63;;
73642;SDS011;61938;48.652;9.292;2024-01-10T12:46:27;61.38;;;26.42;;
73642;SDS011;61938;48.652;9.292;2024-01-10T12:48:59;65.82;;;27.52;;
73642;SDS011;61938;48.652;9.292;2024-01-10T12:51:27;71.20;;;28.73;;
73642;SDS011;61938;48.652;9.292;2024-01-10T12:53:57;69.75;;;28.63;;
73642;SDS011;61938;48.652;9.292;2024-01-10T12:56:23;80.53;;;28.95;;
73642;SDS011;61938;48.652;9.292;2024-01-10T12:58:49;66.05;;;29.65;;
73642;SDS011;61938;48.652;9.292;2024-01-10T13:01:15;64.97;;;28.30;;
73642;SDS011;61938;48.652;9.292;2024-01-10T13:03:40;67.50;;;27.83;;
73642;SDS011;61938;48.652;9.292;2024-01-10T13:06:06;69.00;;;26.80;;
73642;SDS011;61938;48.652;9.292;2024-01-10T13:08:32;64.53;;;27.20;;
73642;SDS011;61938;48.652;9.292;2024-01-10T13:10:57;71.93;;;29.27;;
73642;SDS011;61938;48.652;9.292;2024-01-10T13:13:24;64.05;;;27.40;;
73642;SDS011;61938;48.652;9.292;2024-01-10T13:15:50;65.30;;;26.58;;
73642;SDS011;61938;48.652;9.292;2024-01-10T13:18:16;60.80;;;26.75;;
73642;SDS011;61938;48.652;9.292;2024-01-10T13:20:42;61.08;;;26.85;;
73642;SDS011;61938;48.652;9.292;2024-01-10T13:23:08;69.95;;;29.70;;
73642;SDS011;61938;48.652;9.292;2024-01-10T13:25:34;58.35;;;26.70;;
73642;SDS011;61938;48.652;9.292;2024-01-10T13:28:00;60.28;;;25.60;;
73642;SDS011;61938;48.652;9.292;2024-01-10T13:30:26;64.40;;;27.38;;
73642;SDS011;61938;48.652;9.292;2024-01-10T13:32:52;66.32;;;27.05;;
73642;SDS011;61938;48.652;9.292;2024-01-10T13:35:18;65.55;;;26.55;;
73642;SDS011;61938;48.652;9.292;2024-01-10T13:37:44;70.25;;;28.20;;
73642;SDS011;61938;48.652;9.292;2024-01-10T13:40:10;65.28;;;26.48;;
73642;SDS011;61938;48.652;9.292;2024-01-10T13:42:37;59.63;;;26.58;;
73642;SDS011;61938;48.652;9.292;2024-01-10T13:45:05;62.25;;;26.98;;
73642;SDS011;61938;48.652;9.292;2024-01-10T13:47:31;65.22;;;28.30;;
73642;SDS011;61938;48.652;9.292;2024-01-10T13:49:58;69.25;;;28.63;;
73642;SDS011;61938;48.652;9.292;2024-01-10T13:52:24;59.58;;;26.50;;
73642;SDS011;61938;48.652;9.292;2024-01-10T13:54:50;65.72;;;27.38;;
73642;SDS011;61938;48.652;9.292;2024-01-10T13:57:15;65.82;;;25.58;;
73642;SDS011;61938;48.652;9.292;2024-01-10T13:59:41;62.05;;;25.90;;
73642;SDS011;61938;48.652;9.292;2024-01-10T14:02:07;67.07;;;28.17;;
73642;SDS011;61938;48.652;9.292;2024-01-10T14:04:32;67.38;;;28.08;;
73642;SDS011;61938;48.652;9.292;2024-01-10T14:06:58;67.18;;;27.90;;
73642;SDS011;61938;48.652;9.292;2024-01-10T14:09:24;84.28;;;30.80;;
73642;SDS011;61938;48.652;9.292;2024-01-10T14:11:49;71.60;;;27.60;;
73642;SDS011;61938;48.652;9.292;2024-01-10T14:14:18;75.13;;;29.52;;
73642;SDS011;61938;48.652;9.292;2024-01-10T14:16:43;67.72;;;28.20;;
73642;SDS011;61938;48.652;9.292;2024-01-10T14:19:09;72.50;;;29.17;;
73642;SDS011;61938;48.652;9.292;2024-01-10T14:21:34;70.40;;;29.40;;
73642;SDS011;61938;48.652;9.292;2024-01-10T14:24:00;67.63;;;28.17;;
73642;SDS011;61938;48.652;9.292;2024-01-10T14:26:26;61.83;;;26.25;;